CheckWX is a tool to help pilots better visualize weather data.  It is not intended as a substitute for an official pre-flight weather briefing.

01:10:35 UTC

0VG METAR
Lee County Airport
Jonesville, Virginia, USA
Current

36 mins ago

K0VG 240035Z AUTO 05004KT 10SM BKN009 BKN012 OVC033 10/10 A2995 RMK AO2
Observed
Feb-24 @ 00:35 UTC
Wind
  • 050° at 4 KTS
Visibility
10 SM
Flight Rules
IFR
Cloud Levels
  • Broken at 900' AGL
  • Broken at 1,200' AGL
  • Overcast at 3,300' AGL
Temperature
10°C / 50°F
Dewpoint
10°C / 50°F
Humidity
100%
Altimeter
29.95" Hg
Pressure
1014.22 hPa
Previous

1 hour ago

K0VG 232355Z AUTO 05006KT 10SM OVC009 10/10 A2997 RMK AO2
Observed
Feb-23 @ 23:55 UTC
Wind
  • 050° at 6 KTS
Visibility
10 SM
Flight Rules
IFR
Cloud Levels
  • Overcast at 900' AGL
Temperature
10°C / 50°F
Dewpoint
10°C / 50°F
Humidity
100%
Altimeter
29.97" Hg
Pressure
1014.92 hPa
Previous

2 hours ago

K0VG 232335Z AUTO 05003KT 10SM OVC009 10/10 A3000 RMK AO2
Observed
Feb-23 @ 23:35 UTC
Wind
  • 050° at 3 KTS
Visibility
10 SM
Flight Rules
IFR
Cloud Levels
  • Overcast at 900' AGL
Temperature
10°C / 50°F
Dewpoint
10°C / 50°F
Humidity
100%
Altimeter
30" Hg
Pressure
1015.92 hPa